sensor_id;sensor_type;location;lat;lon;timestamp;temperature;humidity
18733;DHT22;9495;51.210;2.934;2023-11-19T00:00:28;16.70;99.90
18733;DHT22;9495;51.210;2.934;2023-11-19T00:02:57;16.70;99.90
18733;DHT22;9495;51.210;2.934;2023-11-19T00:05:27;16.70;99.90
18733;DHT22;9495;51.210;2.934;2023-11-19T00:07:56;16.80;99.90
18733;DHT22;9495;51.210;2.934;2023-11-19T00:10:24;16.70;99.90
18733;DHT22;9495;51.210;2.934;2023-11-19T00:12:53;16.90;99.90
18733;DHT22;9495;51.210;2.934;2023-11-19T00:15:21;17.00;99.90
18733;DHT22;9495;51.210;2.934;2023-11-19T00:17:51;16.60;99.90
18733;DHT22;9495;51.210;2.934;2023-11-19T00:20:20;16.50;99.90
18733;DHT22;9495;51.210;2.934;2023-11-19T00:22:51;16.60;99.90
18733;DHT22;9495;51.210;2.934;2023-11-19T00:25:20;16.00;99.90
18733;DHT22;9495;51.210;2.934;2023-11-19T00:27:50;15.80;99.90
18733;DHT22;9495;51.210;2.934;2023-11-19T00:30:21;15.90;99.90
18733;DHT22;9495;51.210;2.934;2023-11-19T00:32:49;16.10;99.90
18733;DHT22;9495;51.210;2.934;2023-11-19T00:35:18;16.60;99.90
18733;DHT22;9495;51.210;2.934;2023-11-19T00:37:47;16.50;99.90
18733;DHT22;9495;51.210;2.934;2023-11-19T00:40:18;16.60;99.90
18733;DHT22;9495;51.210;2.934;2023-11-19T00:42:50;16.80;99.90
18733;DHT22;9495;51.210;2.934;2023-11-19T00:45:19;16.90;99.90
18733;DHT22;9495;51.210;2.934;2023-11-19T00:47:47;16.50;99.90
18733;DHT22;9495;51.210;2.934;2023-11-19T00:50:16;16.30;99.90
18733;DHT22;9495;51.210;2.934;2023-11-19T00:52:44;16.50;99.90
18733;DHT22;9495;51.210;2.934;2023-11-19T00:55:14;16.50;99.90
18733;DHT22;9495;51.210;2.934;2023-11-19T00:57:44;16.60;99.90
18733;DHT22;9495;51.210;2.934;2023-11-19T01:00:13;16.40;99.90
18733;DHT22;9495;51.210;2.934;2023-11-19T01:02:47;16.20;99.90
18733;DHT22;9495;51.210;2.934;2023-11-19T01:05:18;16.10;99.90
18733;DHT22;9495;51.210;2.934;2023-11-19T01:07:50;16.00;99.90
18733;DHT22;9495;51.210;2.934;2023-11-19T01:10:22;15.80;99.90
18733;DHT22;9495;51.210;2.934;2023-11-19T01:12:53;15.80;99.90
18733;DHT22;9495;51.210;2.934;2023-11-19T01:15:22;16.10;99.90
18733;DHT22;9495;51.210;2.934;2023-11-19T01:17:50;16.30;99.90
18733;DHT22;9495;51.210;2.934;2023-11-19T01:20:20;16.20;99.90
18733;DHT22;9495;51.210;2.934;2023-11-19T01:22:49;16.00;99.90
18733;DHT22;9495;51.210;2.934;2023-11-19T01:25:18;16.10;99.90
18733;DHT22;9495;51.210;2.934;2023-11-19T01:27:47;16.50;99.90
18733;DHT22;9495;51.210;2.934;2023-11-19T01:30:18;16.60;99.90
18733;DHT22;9495;51.210;2.934;2023-11-19T01:32:47;16.70;99.90
18733;DHT22;9495;51.210;2.934;2023-11-19T01:35:15;16.50;99.90
18733;DHT22;9495;51.210;2.934;2023-11-19T01:37:44;16.60;99.90
18733;DHT22;9495;51.210;2.934;2023-11-19T01:40:12;16.90;99.90
18733;DHT22;9495;51.210;2.934;2023-11-19T01:42:42;16.90;99.90
18733;DHT22;9495;51.210;2.934;2023-11-19T01:45:26;16.30;99.90
18733;DHT22;9495;51.210;2.934;2023-11-19T01:47:56;16.50;99.90
18733;DHT22;9495;51.210;2.934;2023-11-19T01:50:25;16.60;99.90
18733;DHT22;9495;51.210;2.934;2023-11-19T01:52:54;16.20;99.90
18733;DHT22;9495;51.210;2.934;2023-11-19T01:55:26;16.50;99.90
18733;DHT22;9495;51.210;2.934;2023-11-19T01:57:59;16.40;99.90
18733;DHT22;9495;51.210;2.934;2023-11-19T02:00:31;16.60;99.90
18733;DHT22;9495;51.210;2.934;2023-11-19T02:03:01;16.50;99.90
18733;DHT22;9495;51.210;2.934;2023-11-19T02:05:31;16.20;99.90
18733;DHT22;9495;51.210;2.934;2023-11-19T02:08:00;16.20;99.90
18733;DHT22;9495;51.210;2.934;2023-11-19T02:10:29;16.10;99.90
18733;DHT22;9495;51.210;2.934;2023-11-19T02:12:59;16.20;99.90
18733;DHT22;9495;51.210;2.934;2023-11-19T02:15:33;15.70;99.90
18733;DHT22;9495;51.210;2.934;2023-11-19T02:18:21;15.70;99.90
18733;DHT22;9495;51.210;2.934;2023-11-19T02:20:50;15.70;99.90
18733;DHT22;9495;51.210;2.934;2023-11-19T02:23:20;15.90;99.90
18733;DHT22;9495;51.210;2.934;2023-11-19T02:25:58;15.60;99.90
18733;DHT22;9495;51.210;2.934;2023-11-19T02:28:29;16.10;99.90
18733;DHT22;9495;51.210;2.934;2023-11-19T02:30:58;15.80;99.90
18733;DHT22;9495;51.210;2.934;2023-11-19T02:33:27;16.20;99.90
18733;DHT22;9495;51.210;2.934;2023-11-19T02:35:56;16.00;99.90
18733;DHT22;9495;51.210;2.934;2023-11-19T02:38:25;15.80;99.90
18733;DHT22;9495;51.210;2.934;2023-11-19T02:40:53;15.80;99.90
18733;DHT22;9495;51.210;2.934;2023-11-19T02:43:21;16.10;99.90
18733;DHT22;9495;51.210;2.934;2023-11-19T02:45:51;16.00;99.90
18733;DHT22;9495;51.210;2.934;2023-11-19T02:48:23;15.60;99.90
18733;DHT22;9495;51.210;2.934;2023-11-19T02:50:52;15.70;99.90
18733;DHT22;9495;51.210;2.934;2023-11-19T02:53:20;15.70;99.90
18733;DHT22;9495;51.210;2.934;2023-11-19T02:55:49;15.60;99.90
18733;DHT22;9495;51.210;2.934;2023-11-19T02:58:18;15.70;99.90
18733;DHT22;9495;51.210;2.934;2023-11-19T03:00:53;15.50;99.90
18733;DHT22;9495;51.210;2.934;2023-11-19T03:03:25;15.60;99.90
18733;DHT22;9495;51.210;2.934;2023-11-19T03:05:58;15.50;99.90
18733;DHT22;9495;51.210;2.934;2023-11-19T03:08:26;15.60;99.90
18733;DHT22;9495;51.210;2.934;2023-11-19T03:10:55;15.50;99.90
18733;DHT22;9495;51.210;2.934;2023-11-19T03:13:23;15.60;99.90
18733;DHT22;9495;51.210;2.934;2023-11-19T03:15:53;15.30;99.90
18733;DHT22;9495;51.210;2.934;2023-11-19T03:18:22;15.40;99.90
18733;DHT22;9495;51.210;2.934;2023-11-19T03:20:52;15.30;99.90
18733;DHT22;9495;51.210;2.934;2023-11-19T03:23:20;15.20;99.90
18733;DHT22;9495;51.210;2.934;2023-11-19T03:25:50;15.10;99.90
18733;DHT22;9495;51.210;2.934;2023-11-19T03:28:18;15.00;99.90
18733;DHT22;9495;51.210;2.934;2023-11-19T03:30:47;15.30;99.90
18733;DHT22;9495;51.210;2.934;2023-11-19T03:33:16;15.30;99.90
18733;DHT22;9495;51.210;2.934;2023-11-19T03:35:45;15.20;99.90
18733;DHT22;9495;51.210;2.934;2023-11-19T03:38:14;15.40;99.90
18733;DHT22;9495;51.210;2.934;2023-11-19T03:40:42;15.40;99.90
18733;DHT22;9495;51.210;2.934;2023-11-19T03:43:11;15.20;99.90
18733;DHT22;9495;51.210;2.934;2023-11-19T03:45:40;15.50;99.90
18733;DHT22;9495;51.210;2.934;2023-11-19T03:48:09;15.30;99.90
18733;DHT22;9495;51.210;2.934;2023-11-19T03:50:39;15.40;99.90
18733;DHT22;9495;51.210;2.934;2023-11-19T03:53:07;15.20;99.90
18733;DHT22;9495;51.210;2.934;2023-11-19T03:55:36;15.30;99.90
18733;DHT22;9495;51.210;2.934;2023-11-19T03:58:04;14.90;99.90
18733;DHT22;9495;51.210;2.934;2023-11-19T04:00:33;15.10;99.90
18733;DHT22;9495;51.210;2.934;2023-11-19T04:03:02;15.60;99.90
18733;DHT22;9495;51.210;2.934;2023-11-19T04:05:31;15.60;99.90
18733;DHT22;9495;51.210;2.934;2023-11-19T04:08:02;15.40;99.90
18733;DHT22;9495;51.210;2.934;2023-11-19T04:10:30;15.80;99.90
18733;DHT22;9495;51.210;2.934;2023-11-19T04:12:59;15.60;99.90
18733;DHT22;9495;51.210;2.934;2023-11-19T04:15:28;15.50;99.90
18733;DHT22;9495;51.210;2.934;2023-11-19T04:17:57;15.40;99.90
18733;DHT22;9495;51.210;2.934;2023-11-19T04:20:25;15.50;99.90
18733;DHT22;9495;51.210;2.934;2023-11-19T04:22:54;15.70;99.90
18733;DHT22;9495;51.210;2.934;2023-11-19T04:25:24;15.30;99.90
18733;DHT22;9495;51.210;2.934;2023-11-19T04:27:53;15.70;99.90
18733;DHT22;9495;51.210;2.934;2023-11-19T04:30:22;15.60;99.90
18733;DHT22;9495;51.210;2.934;2023-11-19T04:32:50;15.40;99.90
18733;DHT22;9495;51.210;2.934;2023-11-19T04:35:19;15.30;99.90
18733;DHT22;9495;51.210;2.934;2023-11-19T04:37:48;15.30;99.90
18733;DHT22;9495;51.210;2.934;2023-11-19T04:40:17;15.80;99.90
18733;DHT22;9495;51.210;2.934;2023-11-19T04:42:47;15.70;99.90
18733;DHT22;9495;51.210;2.934;2023-11-19T04:45:16;16.20;99.90
18733;DHT22;9495;51.210;2.934;2023-11-19T04:47:44;16.20;99.90
18733;DHT22;9495;51.210;2.934;2023-11-19T04:50:13;15.80;99.90
18733;DHT22;9495;51.210;2.934;2023-11-19T04:52:41;15.90;99.90
18733;DHT22;9495;51.210;2.934;2023-11-19T04:55:12;16.20;99.90
18733;DHT22;9495;51.210;2.934;2023-11-19T04:57:42;16.20;99.90
18733;DHT22;9495;51.210;2.934;2023-11-19T05:00:13;16.10;99.90
18733;DHT22;9495;51.210;2.934;2023-11-19T05:02:44;15.80;99.90
18733;DHT22;9495;51.210;2.934;2023-11-19T05:05:12;15.90;99.90
18733;DHT22;9495;51.210;2.934;2023-11-19T05:07:41;15.80;99.90
18733;DHT22;9495;51.210;2.934;2023-11-19T05:10:10;15.80;99.90
18733;DHT22;9495;51.210;2.934;2023-11-19T05:12:39;15.70;99.90
18733;DHT22;9495;51.210;2.934;2023-11-19T05:15:09;16.00;99.90
18733;DHT22;9495;51.210;2.934;2023-11-19T05:17:40;16.00;99.90
18733;DHT22;9495;51.210;2.934;2023-11-19T05:20:09;16.10;99.90
18733;DHT22;9495;51.210;2.934;2023-11-19T05:22:41;16.10;99.90
18733;DHT22;9495;51.210;2.934;2023-11-19T05:25:10;16.00;99.90
18733;DHT22;9495;51.210;2.934;2023-11-19T05:27:38;16.30;99.90
18733;DHT22;9495;51.210;2.934;2023-11-19T05:30:07;16.20;99.90
18733;DHT22;9495;51.210;2.934;2023-11-19T05:32:40;16.30;99.90
18733;DHT22;9495;51.210;2.934;2023-11-19T05:35:08;16.50;99.90
18733;DHT22;9495;51.210;2.934;2023-11-19T05:37:37;16.50;99.90
18733;DHT22;9495;51.210;2.934;2023-11-19T05:40:07;16.60;99.90
18733;DHT22;9495;51.210;2.934;2023-11-19T05:42:42;16.50;99.90
18733;DHT22;9495;51.210;2.934;2023-11-19T05:45:11;16.20;99.90
18733;DHT22;9495;51.210;2.934;2023-11-19T05:47:41;16.30;99.90
18733;DHT22;9495;51.210;2.934;2023-11-19T05:50:11;16.70;99.90
18733;DHT22;9495;51.210;2.934;2023-11-19T05:52:39;16.90;99.90
18733;DHT22;9495;51.210;2.934;2023-11-19T05:55:08;16.70;99.90
18733;DHT22;9495;51.210;2.934;2023-11-19T05:57:38;16.90;99.90
18733;DHT22;9495;51.210;2.934;2023-11-19T06:00:10;16.70;99.90
18733;DHT22;9495;51.210;2.934;2023-11-19T06:02:41;16.60;99.90
18733;DHT22;9495;51.210;2.934;2023-11-19T06:05:10;16.50;99.90
18733;DHT22;9495;51.210;2.934;2023-11-19T06:07:39;17.00;99.90
18733;DHT22;9495;51.210;2.934;2023-11-19T06:10:09;16.80;99.90
18733;DHT22;9495;51.210;2.934;2023-11-19T06:12:38;16.90;99.90
18733;DHT22;9495;51.210;2.934;2023-11-19T06:15:09;17.00;99.90
18733;DHT22;9495;51.210;2.934;2023-11-19T06:17:38;17.10;99.90
18733;DHT22;9495;51.210;2.934;2023-11-19T06:20:09;17.00;99.90
18733;DHT22;9495;51.210;2.934;2023-11-19T06:22:39;16.80;99.90
18733;DHT22;9495;51.210;2.934;2023-11-19T06:25:09;16.50;99.90
18733;DHT22;9495;51.210;2.934;2023-11-19T06:27:39;16.70;99.90
18733;DHT22;9495;51.210;2.934;2023-11-19T06:30:08;16.40;99.90
18733;DHT22;9495;51.210;2.934;2023-11-19T06:32:38;16.70;99.90
18733;DHT22;9495;51.210;2.934;2023-11-19T06:35:09;16.80;99.90
18733;DHT22;9495;51.210;2.934;2023-11-19T06:37:38;17.10;99.90
18733;DHT22;9495;51.210;2.934;2023-11-19T06:40:08;17.00;99.90
18733;DHT22;9495;51.210;2.934;2023-11-19T06:42:37;17.20;99.90
18733;DHT22;9495;51.210;2.934;2023-11-19T06:45:06;17.30;99.90
18733;DHT22;9495;51.210;2.934;2023-11-19T06:47:35;16.80;99.90
18733;DHT22;9495;51.210;2.934;2023-11-19T06:50:04;16.70;99.90
18733;DHT22;9495;51.210;2.934;2023-11-19T06:52:35;16.10;99.90
18733;DHT22;9495;51.210;2.934;2023-11-19T06:55:05;16.60;99.90
18733;DHT22;9495;51.210;2.934;2023-11-19T06:57:35;17.00;99.90
18733;DHT22;9495;51.210;2.934;2023-11-19T07:00:05;16.80;99.90
18733;DHT22;9495;51.210;2.934;2023-11-19T07:02:33;16.80;99.90
18733;DHT22;9495;51.210;2.934;2023-11-19T07:05:02;16.40;99.90
18733;DHT22;9495;51.210;2.934;2023-11-19T07:07:31;16.40;99.90
18733;DHT22;9495;51.210;2.934;2023-11-19T07:10:02;17.00;99.90
18733;DHT22;9495;51.210;2.934;2023-11-19T07:12:31;16.80;99.90
18733;DHT22;9495;51.210;2.934;2023-11-19T07:15:00;16.90;99.90
18733;DHT22;9495;51.210;2.934;2023-11-19T07:17:30;16.60;99.90
18733;DHT22;9495;51.210;2.934;2023-11-19T07:19:59;16.20;99.90
18733;DHT22;9495;51.210;2.934;2023-11-19T07:22:27;16.30;99.90
18733;DHT22;9495;51.210;2.934;2023-11-19T07:24:57;16.20;99.90
18733;DHT22;9495;51.210;2.934;2023-11-19T07:27:27;15.90;99.90
18733;DHT22;9495;51.210;2.934;2023-11-19T07:29:55;16.10;99.90
18733;DHT22;9495;51.210;2.934;2023-11-19T07:32:25;16.50;99.90
18733;DHT22;9495;51.210;2.934;2023-11-19T07:34:53;16.50;99.90
18733;DHT22;9495;51.210;2.934;2023-11-19T07:37:23;16.90;99.90
18733;DHT22;9495;51.210;2.934;2023-11-19T07:39:52;16.40;99.90
18733;DHT22;9495;51.210;2.934;2023-11-19T07:42:21;16.10;99.90
18733;DHT22;9495;51.210;2.934;2023-11-19T07:44:51;15.90;99.90
18733;DHT22;9495;51.210;2.934;2023-11-19T07:47:21;15.80;99.90
18733;DHT22;9495;51.210;2.934;2023-11-19T07:49:51;16.20;99.90
18733;DHT22;9495;51.210;2.934;2023-11-19T07:52:20;16.30;99.90
18733;DHT22;9495;51.210;2.934;2023-11-19T07:54:49;16.20;99.90
18733;DHT22;9495;51.210;2.934;2023-11-19T07:57:17;16.60;99.90
18733;DHT22;9495;51.210;2.934;2023-11-19T07:59:46;16.20;99.90
18733;DHT22;9495;51.210;2.934;2023-11-19T08:02:16;16.40;99.90
18733;DHT22;9495;51.210;2.934;2023-11-19T08:04:45;16.30;99.90
18733;DHT22;9495;51.210;2.934;2023-11-19T08:07:17;16.50;99.90
18733;DHT22;9495;51.210;2.934;2023-11-19T08:09:46;16.40;99.90
18733;DHT22;9495;51.210;2.934;2023-11-19T08:12:14;16.00;99.90
18733;DHT22;9495;51.210;2.934;2023-11-19T08:14:44;16.00;99.90
18733;DHT22;9495;51.210;2.934;2023-11-19T08:17:13;16.10;99.90
18733;DHT22;9495;51.210;2.934;2023-11-19T08:19:43;15.90;99.90
18733;DHT22;9495;51.210;2.934;2023-11-19T08:22:11;16.00;99.90
18733;DHT22;9495;51.210;2.934;2023-11-19T08:24:40;16.00;99.90
18733;DHT22;9495;51.210;2.934;2023-11-19T08:27:08;16.60;99.90
18733;DHT22;9495;51.210;2.934;2023-11-19T08:29:37;16.70;99.90
18733;DHT22;9495;51.210;2.934;2023-11-19T08:32:06;16.90;99.90
18733;DHT22;9495;51.210;2.934;2023-11-19T08:34:35;16.80;99.90
18733;DHT22;9495;51.210;2.934;2023-11-19T08:37:05;16.90;99.90
18733;DHT22;9495;51.210;2.934;2023-11-19T08:39:33;17.20;99.90
18733;DHT22;9495;51.210;2.934;2023-11-19T08:42:02;16.50;99.90
18733;DHT22;9495;51.210;2.934;2023-11-19T08:44:30;16.70;99.90
18733;DHT22;9495;51.210;2.934;2023-11-19T08:46:59;16.70;99.90
18733;DHT22;9495;51.210;2.934;2023-11-19T08:49:27;16.90;99.90
18733;DHT22;9495;51.210;2.934;2023-11-19T08:51:55;17.00;99.90
18733;DHT22;9495;51.210;2.934;2023-11-19T08:54:25;16.90;99.90
18733;DHT22;9495;51.210;2.934;2023-11-19T08:56:54;16.90;99.90
18733;DHT22;9495;51.210;2.934;2023-11-19T08:59:22;16.80;99.90
18733;DHT22;9495;51.210;2.934;2023-11-19T09:01:51;17.30;99.90
18733;DHT22;9495;51.210;2.934;2023-11-19T09:04:19;17.50;99.90
18733;DHT22;9495;51.210;2.934;2023-11-19T09:06:49;17.60;99.90
18733;DHT22;9495;51.210;2.934;2023-11-19T09:09:18;17.70;99.90
18733;DHT22;9495;51.210;2.934;2023-11-19T09:11:48;17.50;99.90
18733;DHT22;9495;51.210;2.934;2023-11-19T09:14:17;17.70;99.90
18733;DHT22;9495;51.210;2.934;2023-11-19T09:16:49;17.50;99.90
18733;DHT22;9495;51.210;2.934;2023-11-19T09:19:18;17.40;99.90
18733;DHT22;9495;51.210;2.934;2023-11-19T09:21:46;17.10;99.90
18733;DHT22;9495;51.210;2.934;2023-11-19T09:24:16;16.90;99.90
18733;DHT22;9495;51.210;2.934;2023-11-19T09:26:44;16.50;99.90
18733;DHT22;9495;51.210;2.934;2023-11-19T09:29:14;15.80;99.90
18733;DHT22;9495;51.210;2.934;2023-11-19T09:31:43;15.20;99.90
18733;DHT22;9495;51.210;2.934;2023-11-19T09:34:12;15.10;99.90
18733;DHT22;9495;51.210;2.934;2023-11-19T09:36:40;15.30;99.90
18733;DHT22;9495;51.210;2.934;2023-11-19T09:39:11;16.40;99.90
18733;DHT22;9495;51.210;2.934;2023-11-19T09:41:42;16.90;99.90
18733;DHT22;9495;51.210;2.934;2023-11-19T09:44:13;17.50;99.90
18733;DHT22;9495;51.210;2.934;2023-11-19T09:46:45;17.60;99.90
18733;DHT22;9495;51.210;2.934;2023-11-19T09:49:18;17.90;99.90
18733;DHT22;9495;51.210;2.934;2023-11-19T09:52:03;17.80;99.90
18733;DHT22;9495;51.210;2.934;2023-11-19T09:54:32;17.70;99.90
18733;DHT22;9495;51.210;2.934;2023-11-19T09:57:02;17.70;99.90
18733;DHT22;9495;51.210;2.934;2023-11-19T09:59:33;17.60;99.90
18733;DHT22;9495;51.210;2.934;2023-11-19T10:02:02;17.80;99.90
18733;DHT22;9495;51.210;2.934;2023-11-19T10:04:35;17.60;99.90
18733;DHT22;9495;51.210;2.934;2023-11-19T10:07:05;17.50;99.90
18733;DHT22;9495;51.210;2.934;2023-11-19T10:09:33;17.30;99.90
18733;DHT22;9495;51.210;2.934;2023-11-19T10:12:02;17.30;99.90
18733;DHT22;9495;51.210;2.934;2023-11-19T10:14:33;17.10;99.90
18733;DHT22;9495;51.210;2.934;2023-11-19T10:17:04;17.20;99.90
18733;DHT22;9495;51.210;2.934;2023-11-19T10:19:35;17.50;99.90
18733;DHT22;9495;51.210;2.934;2023-11-19T10:22:04;17.00;99.90
18733;DHT22;9495;51.210;2.934;2023-11-19T10:24:33;17.30;99.90
18733;DHT22;9495;51.210;2.934;2023-11-19T10:27:07;17.30;99.90
18733;DHT22;9495;51.210;2.934;2023-11-19T10:29:37;17.40;99.90
18733;DHT22;9495;51.210;2.934;2023-11-19T10:32:07;17.50;99.90
18733;DHT22;9495;51.210;2.934;2023-11-19T10:34:57;17.30;99.90
18733;DHT22;9495;51.210;2.934;2023-11-19T10:37:33;16.90;99.90
18733;DHT22;9495;51.210;2.934;2023-11-19T10:40:05;16.90;99.90
18733;DHT22;9495;51.210;2.934;2023-11-19T10:42:38;17.30;99.90
18733;DHT22;9495;51.210;2.934;2023-11-19T10:45:21;17.10;99.90
18733;DHT22;9495;51.210;2.934;2023-11-19T10:47:51;17.10;99.90
18733;DHT22;9495;51.210;2.934;2023-11-19T10:50:20;17.30;99.90
18733;DHT22;9495;51.210;2.934;2023-11-19T10:52:52;17.30;99.90
18733;DHT22;9495;51.210;2.934;2023-11-19T10:55:27;17.40;99.90
18733;DHT22;9495;51.210;2.934;2023-11-19T10:57:59;17.30;99.90
18733;DHT22;9495;51.210;2.934;2023-11-19T11:00:37;17.20;99.90
18733;DHT22;9495;51.210;2.934;2023-11-19T11:03:10;16.80;99.90
18733;DHT22;9495;51.210;2.934;2023-11-19T11:05:40;16.90;99.90
18733;DHT22;9495;51.210;2.934;2023-11-19T11:08:10;17.20;99.90
18733;DHT22;9495;51.210;2.934;2023-11-19T11:10:42;17.20;99.90
18733;DHT22;9495;51.210;2.934;2023-11-19T11:13:14;17.30;99.90
18733;DHT22;9495;51.210;2.934;2023-11-19T11:15:44;17.30;99.90
18733;DHT22;9495;51.210;2.934;2023-11-19T11:18:14;16.80;99.90
18733;DHT22;9495;51.210;2.934;2023-11-19T11:20:44;17.20;99.90
18733;DHT22;9495;51.210;2.934;2023-11-19T11:23:45;17.60;99.90
18733;DHT22;9495;51.210;2.934;2023-11-19T11:26:41;17.20;99.90
18733;DHT22;9495;51.210;2.934;2023-11-19T11:29:19;17.60;99.90
18733;DHT22;9495;51.210;2.934;2023-11-19T11:31:59;17.60;99.90
18733;DHT22;9495;51.210;2.934;2023-11-19T11:34:44;17.50;99.90
18733;DHT22;9495;51.210;2.934;2023-11-19T11:37:18;17.40;99.90
18733;DHT22;9495;51.210;2.934;2023-11-19T11:39:52;17.40;99.90
18733;DHT22;9495;51.210;2.934;2023-11-19T11:42:34;17.70;99.90
18733;DHT22;9495;51.210;2.934;2023-11-19T11:45:04;17.90;99.90
18733;DHT22;9495;51.210;2.934;2023-11-19T11:50:54;17.30;99.90
18733;DHT22;9495;51.210;2.934;2023-11-19T11:53:23;17.20;99.90
18733;DHT22;9495;51.210;2.934;2023-11-19T11:55:54;17.50;99.90
18733;DHT22;9495;51.210;2.934;2023-11-19T11:58:30;17.30;99.90
18733;DHT22;9495;51.210;2.934;2023-11-19T12:01:02;17.40;99.90
18733;DHT22;9495;51.210;2.934;2023-11-19T12:03:33;17.30;99.90
18733;DHT22;9495;51.210;2.934;2023-11-19T12:06:04;17.70;99.90
18733;DHT22;9495;51.210;2.934;2023-11-19T12:08:34;17.70;99.90
18733;DHT22;9495;51.210;2.934;2023-11-19T12:11:19;17.90;99.90
18733;DHT22;9495;51.210;2.934;2023-11-19T12:13:54;18.00;99.90
18733;DHT22;9495;51.210;2.934;2023-11-19T12:16:30;17.80;99.90
18733;DHT22;9495;51.210;2.934;2023-11-19T12:19:03;17.80;99.90
18733;DHT22;9495;51.210;2.934;2023-11-19T12:21:34;18.20;99.90
18733;DHT22;9495;51.210;2.934;2023-11-19T12:24:06;18.70;99.90
18733;DHT22;9495;51.210;2.934;2023-11-19T12:26:37;18.70;99.90
18733;DHT22;9495;51.210;2.934;2023-11-19T12:29:06;17.80;99.90
18733;DHT22;9495;51.210;2.934;2023-11-19T12:31:37;18.00;99.90
18733;DHT22;9495;51.210;2.934;2023-11-19T12:34:09;17.70;99.90
18733;DHT22;9495;51.210;2.934;2023-11-19T12:36:42;18.00;99.90
18733;DHT22;9495;51.210;2.934;2023-11-19T12:39:11;17.80;99.90
18733;DHT22;9495;51.210;2.934;2023-11-19T12:41:52;17.90;99.90
18733;DHT22;9495;51.210;2.934;2023-11-19T12:44:21;17.10;99.90
18733;DHT22;9495;51.210;2.934;2023-11-19T12:47:03;17.10;99.90
18733;DHT22;9495;51.210;2.934;2023-11-19T12:49:32;17.20;99.90
18733;DHT22;9495;51.210;2.934;2023-11-19T12:52:02;17.80;99.90
18733;DHT22;9495;51.210;2.934;2023-11-19T12:54:34;17.90;99.90
18733;DHT22;9495;51.210;2.934;2023-11-19T12:57:04;18.00;99.90
18733;DHT22;9495;51.210;2.934;2023-11-19T12:59:33;18.20;99.90
18733;DHT22;9495;51.210;2.934;2023-11-19T13:02:02;18.00;99.90
18733;DHT22;9495;51.210;2.934;2023-11-19T13:04:33;17.90;99.90
18733;DHT22;9495;51.210;2.934;2023-11-19T13:07:03;17.90;99.90
18733;DHT22;9495;51.210;2.934;2023-11-19T13:09:33;18.10;99.90
18733;DHT22;9495;51.210;2.934;2023-11-19T13:12:12;18.20;99.90
18733;DHT22;9495;51.210;2.934;2023-11-19T13:14:42;18.00;99.90
18733;DHT22;9495;51.210;2.934;2023-11-19T13:17:15;18.20;99.90
18733;DHT22;9495;51.210;2.934;2023-11-19T13:19:47;18.40;99.90
18733;DHT22;9495;51.210;2.934;2023-11-19T13:22:16;18.40;99.90
18733;DHT22;9495;51.210;2.934;2023-11-19T13:24:45;18.20;99.90
18733;DHT22;9495;51.210;2.934;2023-11-19T13:27:13;18.10;99.90
18733;DHT22;9495;51.210;2.934;2023-11-19T13:29:42;18.00;99.90
18733;DHT22;9495;51.210;2.934;2023-11-19T13:32:10;18.30;99.90
18733;DHT22;9495;51.210;2.934;2023-11-19T13:34:39;18.30;99.90
18733;DHT22;9495;51.210;2.934;2023-11-19T13:37:08;18.00;99.90
18733;DHT22;9495;51.210;2.934;2023-11-19T13:39:41;18.20;99.90
18733;DHT22;9495;51.210;2.934;2023-11-19T13:42:10;18.30;99.90
18733;DHT22;9495;51.210;2.934;2023-11-19T13:44:40;18.50;99.90
18733;DHT22;9495;51.210;2.934;2023-11-19T13:47:09;18.40;99.90
18733;DHT22;9495;51.210;2.934;2023-11-19T13:49:38;18.60;99.90
18733;DHT22;9495;51.210;2.934;2023-11-19T13:52:07;18.50;99.90
18733;DHT22;9495;51.210;2.934;2023-11-19T13:54:38;18.60;99.90
18733;DHT22;9495;51.210;2.934;2023-11-19T13:57:06;18.70;99.90
18733;DHT22;9495;51.210;2.934;2023-11-19T13:59:40;18.40;99.90
18733;DHT22;9495;51.210;2.934;2023-11-19T14:02:08;18.70;99.90
18733;DHT22;9495;51.210;2.934;2023-11-19T14:04:37;18.80;99.90
18733;DHT22;9495;51.210;2.934;2023-11-19T14:07:06;18.50;99.90
18733;DHT22;9495;51.210;2.934;2023-11-19T14:09:34;18.10;99.90
18733;DHT22;9495;51.210;2.934;2023-11-19T14:12:05;17.40;99.90
18733;DHT22;9495;51.210;2.934;2023-11-19T14:14:33;17.00;99.90
18733;DHT22;9495;51.210;2.934;2023-11-19T14:17:02;16.90;99.90
18733;DHT22;9495;51.210;2.934;2023-11-19T14:19:34;17.60;99.90
18733;DHT22;9495;51.210;2.934;2023-11-19T14:22:02;18.00;99.90
18733;DHT22;9495;51.210;2.934;2023-11-19T14:24:31;17.70;99.90
18733;DHT22;9495;51.210;2.934;2023-11-19T14:27:00;18.10;99.90
18733;DHT22;9495;51.210;2.934;2023-11-19T14:29:30;18.20;99.90
18733;DHT22;9495;51.210;2.934;2023-11-19T14:31:58;18.20;99.90
18733;DHT22;9495;51.210;2.934;2023-11-19T14:34:28;18.20;99.90
18733;DHT22;9495;51.210;2.934;2023-11-19T14:36:57;18.10;99.90
18733;DHT22;9495;51.210;2.934;2023-11-19T14:39:25;17.80;99.90
18733;DHT22;9495;51.210;2.934;2023-11-19T14:41:54;17.90;99.90
18733;DHT22;9495;51.210;2.934;2023-11-19T14:44:25;18.00;99.90
18733;DHT22;9495;51.210;2.934;2023-11-19T14:46:55;17.90;99.90
18733;DHT22;9495;51.210;2.934;2023-11-19T14:49:23;18.10;99.90
18733;DHT22;9495;51.210;2.934;2023-11-19T14:51:52;18.30;99.90
18733;DHT22;9495;51.210;2.934;2023-11-19T14:54:20;18.30;99.90
18733;DHT22;9495;51.210;2.934;2023-11-19T14:56:49;18.50;99.90
18733;DHT22;9495;51.210;2.934;2023-11-19T14:59:19;18.30;99.90
18733;DHT22;9495;51.210;2.934;2023-11-19T15:01:47;18.60;99.90
18733;DHT22;9495;51.210;2.934;2023-11-19T15:04:17;18.50;99.90
18733;DHT22;9495;51.210;2.934;2023-11-19T15:06:46;18.50;99.90
18733;DHT22;9495;51.210;2.934;2023-11-19T15:09:14;18.80;99.90
18733;DHT22;9495;51.210;2.934;2023-11-19T15:11:44;18.60;99.90
18733;DHT22;9495;51.210;2.934;2023-11-19T15:14:14;18.70;99.90
18733;DHT22;9495;51.210;2.934;2023-11-19T15:16:46;18.50;99.90
18733;DHT22;9495;51.210;2.934;2023-11-19T15:19:19;18.60;99.90
18733;DHT22;9495;51.210;2.934;2023-11-19T15:21:48;18.70;99.90
18733;DHT22;9495;51.210;2.934;2023-11-19T15:24:16;18.80;99.90
18733;DHT22;9495;51.210;2.934;2023-11-19T15:26:45;18.50;99.90
18733;DHT22;9495;51.210;2.934;2023-11-19T15:29:13;18.50;99.90
18733;DHT22;9495;51.210;2.934;2023-11-19T15:31:42;18.70;99.90
18733;DHT22;9495;51.210;2.934;2023-11-19T15:34:11;18.60;99.90
18733;DHT22;9495;51.210;2.934;2023-11-19T15:36:41;18.40;99.90
18733;DHT22;9495;51.210;2.934;2023-11-19T15:39:10;18.40;99.90
18733;DHT22;9495;51.210;2.934;2023-11-19T15:41:40;18.50;99.90
18733;DHT22;9495;51.210;2.934;2023-11-19T15:44:09;18.00;99.90
18733;DHT22;9495;51.210;2.934;2023-11-19T15:46:40;17.80;99.90
18733;DHT22;9495;51.210;2.934;2023-11-19T15:49:09;18.30;99.90
18733;DHT22;9495;51.210;2.934;2023-11-19T15:51:38;18.10;99.90
18733;DHT22;9495;51.210;2.934;2023-11-19T15:54:08;18.60;99.90
18733;DHT22;9495;51.210;2.934;2023-11-19T15:56:36;18.80;99.90
18733;DHT22;9495;51.210;2.934;2023-11-19T15:59:05;18.80;99.90
18733;DHT22;9495;51.210;2.934;2023-11-19T16:01:35;18.80;99.90
18733;DHT22;9495;51.210;2.934;2023-11-19T16:04:04;18.90;99.90
18733;DHT22;9495;51.210;2.934;2023-11-19T16:06:32;18.60;99.90